sensor_id;sensor_type;location;lat;lon;timestamp;pressure;altitude;pressure_sealevel;temperature;humidity
30618;BME280;17384;51.214;9.202;2023-06-19T00:01:41;98249.78;;;18.14;67.83
30618;BME280;17384;51.214;9.202;2023-06-19T00:04:06;98260.19;;;18.17;68.21
30618;BME280;17384;51.214;9.202;2023-06-19T00:06:32;98267.59;;;18.21;69.13
30618;BME280;17384;51.214;9.202;2023-06-19T00:08:57;98264.03;;;18.26;69.45
30618;BME280;17384;51.214;9.202;2023-06-19T00:11:23;98254.16;;;18.20;69.49
30618;BME280;17384;51.214;9.202;2023-06-19T00:13:49;98261.03;;;18.17;68.24
30618;BME280;17384;51.214;9.202;2023-06-19T00:16:15;98258.56;;;18.16;67.81
30618;BME280;17384;51.214;9.202;2023-06-19T00:18:40;98257.72;;;18.20;67.10
30618;BME280;17384;51.214;9.202;2023-06-19T00:21:07;98254.97;;;18.25;66.51
30618;BME280;17384;51.214;9.202;2023-06-19T00:23:32;98266.22;;;18.29;66.72
30618;BME280;17384;51.214;9.202;2023-06-19T00:25:59;98262.06;;;18.37;68.59
30618;BME280;17384;51.214;9.202;2023-06-19T00:28:27;98264.03;;;18.31;68.85
30618;BME280;17384;51.214;9.202;2023-06-19T00:30:53;98255.25;;;18.29;68.47
30618;BME280;17384;51.214;9.202;2023-06-19T00:33:19;98260.19;;;18.27;69.50
30618;BME280;17384;51.214;9.202;2023-06-19T00:35:44;98244.53;;;18.22;69.70
30618;BME280;17384;51.214;9.202;2023-06-19T00:38:09;98262.94;;;18.17;69.86
30618;BME280;17384;51.214;9.202;2023-06-19T00:40:35;98248.66;;;18.15;69.86
30618;BME280;17384;51.214;9.202;2023-06-19T00:43:01;98248.13;;;18.18;68.28
30618;BME280;17384;51.214;9.202;2023-06-19T00:45:27;98244.28;;;18.19;67.29
30618;BME280;17384;51.214;9.202;2023-06-19T00:47:54;98245.09;;;18.19;65.95
30618;BME280;17384;51.214;9.202;2023-06-19T00:50:23;98250.03;;;18.22;64.80
30618;BME280;17384;51.214;9.202;2023-06-19T00:52:48;98228.34;;;18.21;65.89
30618;BME280;17384;51.214;9.202;2023-06-19T00:55:15;98236.03;;;18.24;67.39
30618;BME280;17384;51.214;9.202;2023-06-19T00:57:41;98236.03;;;18.19;67.76
30618;BME280;17384;51.214;9.202;2023-06-19T01:00:08;98239.34;;;18.16;68.03
30618;BME280;17384;51.214;9.202;2023-06-19T01:02:35;98238.22;;;18.32;68.27
30618;BME280;17384;51.214;9.202;2023-06-19T01:05:01;98233.50;;;18.33;67.83
30618;BME280;17384;51.214;9.202;2023-06-19T01:08:22;98233.00;;;18.20;66.82
30618;BME280;17384;51.214;9.202;2023-06-19T01:10:57;98249.78;;;18.09;66.34
30618;BME280;17384;51.214;9.202;2023-06-19T01:15:49;98224.56;;;17.81;69.29
30618;BME280;17384;51.214;9.202;2023-06-19T01:18:15;98222.13;;;17.75;70.07
30618;BME280;17384;51.214;9.202;2023-06-19T01:20:41;98224.06;;;17.69;69.91
30618;BME280;17384;51.214;9.202;2023-06-19T01:23:08;98211.97;;;17.65;70.48
30618;BME280;17384;51.214;9.202;2023-06-19T01:25:34;98216.34;;;17.81;65.45
30618;BME280;17384;51.214;9.202;2023-06-19T01:28:01;98211.66;;;17.92;64.58
30618;BME280;17384;51.214;9.202;2023-06-19T01:30:27;98212.50;;;17.82;63.85
30618;BME280;17384;51.214;9.202;2023-06-19T01:33:25;98211.13;;;17.80;62.54
30618;BME280;17384;51.214;9.202;2023-06-19T01:35:51;98192.22;;;17.68;65.35
30618;BME280;17384;51.214;9.202;2023-06-19T01:38:19;98193.28;;;17.57;66.88
30618;BME280;17384;51.214;9.202;2023-06-19T01:40:48;98189.22;;;17.65;66.48
30618;BME280;17384;51.214;9.202;2023-06-19T01:43:15;98187.53;;;17.64;68.06
30618;BME280;17384;51.214;9.202;2023-06-19T01:45:41;98182.03;;;17.64;68.20
30618;BME280;17384;51.214;9.202;2023-06-19T01:48:07;98191.69;;;17.66;68.05
30618;BME280;17384;51.214;9.202;2023-06-19T01:50:33;98193.84;;;17.59;69.19
30618;BME280;17384;51.214;9.202;2023-06-19T01:52:58;98183.72;;;17.75;68.47
30618;BME280;17384;51.214;9.202;2023-06-19T01:55:24;98180.13;;;17.59;69.42
30618;BME280;17384;51.214;9.202;2023-06-19T01:57:49;98183.16;;;17.47;69.62
30618;BME280;17384;51.214;9.202;2023-06-19T02:00:15;98178.50;;;17.48;70.12
30618;BME280;17384;51.214;9.202;2023-06-19T02:02:40;98179.56;;;17.52;70.56
30618;BME280;17384;51.214;9.202;2023-06-19T02:05:06;98173.28;;;17.51;70.51
30618;BME280;17384;51.214;9.202;2023-06-19T02:07:32;98168.88;;;17.55;70.42
30618;BME280;17384;51.214;9.202;2023-06-19T02:09:57;98172.72;;;17.54;70.16
30618;BME280;17384;51.214;9.202;2023-06-19T02:12:23;98184.53;;;17.50;71.22
30618;BME280;17384;51.214;9.202;2023-06-19T02:14:48;98176.31;;;17.35;71.01
30618;BME280;17384;51.214;9.202;2023-06-19T02:17:14;98167.53;;;17.38;70.39
30618;BME280;17384;51.214;9.202;2023-06-19T02:19:39;98169.72;;;17.41;70.68
30618;BME280;17384;51.214;9.202;2023-06-19T02:22:05;98170.28;;;17.38;71.12
30618;BME280;17384;51.214;9.202;2023-06-19T02:24:31;98170.28;;;17.38;71.44
30618;BME280;17384;51.214;9.202;2023-06-19T02:26:57;98164.25;;;17.20;71.22
30618;BME280;17384;51.214;9.202;2023-06-19T02:29:22;98179.84;;;17.25;71.31
30618;BME280;17384;51.214;9.202;2023-06-19T02:31:48;98179.34;;;17.18;70.61
30618;BME280;17384;51.214;9.202;2023-06-19T02:34:13;98183.97;;;17.27;71.09
30618;BME280;17384;51.214;9.202;2023-06-19T02:36:39;98177.13;;;17.30;71.80
30618;BME280;17384;51.214;9.202;2023-06-19T02:39:05;98173.00;;;17.27;72.08
30618;BME280;17384;51.214;9.202;2023-06-19T02:41:31;98177.66;;;17.27;72.13
30618;BME280;17384;51.214;9.202;2023-06-19T02:43:57;98177.41;;;17.34;72.01
30618;BME280;17384;51.214;9.202;2023-06-19T02:46:22;98179.34;;;17.18;72.45
30618;BME280;17384;51.214;9.202;2023-06-19T02:48:48;98182.59;;;17.10;72.25
30618;BME280;17384;51.214;9.202;2023-06-19T02:51:13;98183.97;;;17.07;72.76
30618;BME280;17384;51.214;9.202;2023-06-19T02:53:39;98190.00;;;17.04;73.11
30618;BME280;17384;51.214;9.202;2023-06-19T02:56:05;98191.91;;;17.04;72.88
30618;BME280;17384;51.214;9.202;2023-06-19T02:58:33;98183.69;;;16.94;73.51
30618;BME280;17384;51.214;9.202;2023-06-19T03:00:58;98184.78;;;16.87;73.75
30618;BME280;17384;51.214;9.202;2023-06-19T03:03:23;98191.63;;;16.85;74.40
30618;BME280;17384;51.214;9.202;2023-06-19T03:05:49;98195.44;;;16.84;74.15
30618;BME280;17384;51.214;9.202;2023-06-19T03:08:14;98195.44;;;16.84;74.57
30618;BME280;17384;51.214;9.202;2023-06-19T03:10:40;98190.50;;;16.81;74.30
30618;BME280;17384;51.214;9.202;2023-06-19T03:13:05;98199.28;;;16.83;73.84
30618;BME280;17384;51.214;9.202;2023-06-19T03:15:30;98202.31;;;16.86;74.18
30618;BME280;17384;51.214;9.202;2023-06-19T03:17:56;98206.97;;;16.86;74.02
30618;BME280;17384;51.214;9.202;2023-06-19T03:20:21;98193.81;;;16.83;74.26
30618;BME280;17384;51.214;9.202;2023-06-19T03:22:47;98207.47;;;16.78;74.60
30618;BME280;17384;51.214;9.202;2023-06-19T03:25:13;98202.53;;;16.75;74.35
30618;BME280;17384;51.214;9.202;2023-06-19T03:27:38;98208.59;;;16.82;74.46
30618;BME280;17384;51.214;9.202;2023-06-19T03:30:05;98199.00;;;16.79;73.59
30618;BME280;17384;51.214;9.202;2023-06-19T03:32:34;98196.50;;;16.73;74.64
30618;BME280;17384;51.214;9.202;2023-06-19T03:35:01;98196.22;;;16.64;74.28
30618;BME280;17384;51.214;9.202;2023-06-19T03:37:27;98205.50;;;16.63;74.96
30618;BME280;17384;51.214;9.202;2023-06-19T03:39:52;98206.34;;;16.69;74.60
30618;BME280;17384;51.214;9.202;2023-06-19T03:42:18;98202.25;;;16.71;75.19
30618;BME280;17384;51.214;9.202;2023-06-19T03:44:43;98194.59;;;16.73;74.87
30618;BME280;17384;51.214;9.202;2023-06-19T03:47:09;98194.31;;;16.75;74.95
30618;BME280;17384;51.214;9.202;2023-06-19T03:49:34;98199.00;;;16.79;75.09
30618;BME280;17384;51.214;9.202;2023-06-19T03:52:00;98200.34;;;16.72;75.32
30618;BME280;17384;51.214;9.202;2023-06-19T03:54:26;98205.00;;;16.76;75.17
30618;BME280;17384;51.214;9.202;2023-06-19T03:56:52;98198.72;;;16.81;75.98
30618;BME280;17384;51.214;9.202;2023-06-19T03:59:17;98200.09;;;16.83;75.09
30618;BME280;17384;51.214;9.202;2023-06-19T04:01:43;98204.44;;;16.64;75.65
30618;BME280;17384;51.214;9.202;2023-06-19T04:04:08;98200.63;;;16.65;75.38
30618;BME280;17384;51.214;9.202;2023-06-19T04:06:34;98201.44;;;16.71;75.33
30618;BME280;17384;51.214;9.202;2023-06-19T04:08:59;98203.63;;;16.74;74.87
30618;BME280;17384;51.214;9.202;2023-06-19T04:11:25;98194.88;;;16.77;75.20
30618;BME280;17384;51.214;9.202;2023-06-19T04:13:50;98206.41;;;16.84;74.99
30618;BME280;17384;51.214;9.202;2023-06-19T04:16:16;98208.06;;;16.85;75.30
30618;BME280;17384;51.214;9.202;2023-06-19T04:18:41;98200.38;;;16.87;75.14
30618;BME280;17384;51.214;9.202;2023-06-19T04:21:06;98206.44;;;16.94;74.87
30618;BME280;17384;51.214;9.202;2023-06-19T04:23:32;98211.63;;;17.01;74.80
30618;BME280;17384;51.214;9.202;2023-06-19T04:25:58;98213.28;;;17.02;75.53
30618;BME280;17384;51.214;9.202;2023-06-19T04:28:23;98210.81;;;17.05;75.00
30618;BME280;17384;51.214;9.202;2023-06-19T04:30:48;98214.13;;;17.07;74.71
30618;BME280;17384;51.214;9.202;2023-06-19T04:33:14;98219.91;;;17.16;75.22
30618;BME280;17384;51.214;9.202;2023-06-19T04:35:39;98217.97;;;17.16;74.93
30618;BME280;17384;51.214;9.202;2023-06-19T04:38:09;98211.94;;;17.14;75.15
30618;BME280;17384;51.214;9.202;2023-06-19T04:40:35;98217.69;;;17.13;75.23
30618;BME280;17384;51.214;9.202;2023-06-19T04:43:01;98216.59;;;17.14;75.48
30618;BME280;17384;51.214;9.202;2023-06-19T04:45:27;98234.97;;;17.23;74.82
30618;BME280;17384;51.214;9.202;2023-06-19T04:47:53;98237.44;;;17.35;75.02
30618;BME280;17384;51.214;9.202;2023-06-19T04:50:19;98243.50;;;17.37;74.85
30618;BME280;17384;51.214;9.202;2023-06-19T04:52:44;98249.50;;;17.34;75.24
30618;BME280;17384;51.214;9.202;2023-06-19T04:55:10;98251.16;;;17.35;74.70
30618;BME280;17384;51.214;9.202;2023-06-19T04:57:36;98258.28;;;17.36;74.38
30618;BME280;17384;51.214;9.202;2023-06-19T05:00:04;98274.75;;;17.41;74.98
30618;BME280;17384;51.214;9.202;2023-06-19T05:02:31;98257.50;;;17.46;73.87
30618;BME280;17384;51.214;9.202;2023-06-19T05:04:56;98270.63;;;17.54;73.83
30618;BME280;17384;51.214;9.202;2023-06-19T05:07:22;98269.00;;;17.58;73.85
30618;BME280;17384;51.214;9.202;2023-06-19T05:09:47;98270.97;;;17.68;73.51
30618;BME280;17384;51.214;9.202;2023-06-19T05:12:13;98269.59;;;17.75;72.93
30618;BME280;17384;51.214;9.202;2023-06-19T05:14:39;98284.41;;;17.84;72.63
30618;BME280;17384;51.214;9.202;2023-06-19T05:17:05;98282.75;;;17.93;71.94
30618;BME280;17384;51.214;9.202;2023-06-19T05:19:30;98279.97;;;18.09;70.81
30618;BME280;17384;51.214;9.202;2023-06-19T05:21:56;98275.56;;;18.23;71.12
30618;BME280;17384;51.214;9.202;2023-06-19T05:24:21;98280.50;;;18.31;71.56
30618;BME280;17384;51.214;9.202;2023-06-19T05:26:47;98273.88;;;18.37;71.39
30618;BME280;17384;51.214;9.202;2023-06-19T05:29:12;98282.38;;;18.36;71.54
30618;BME280;17384;51.214;9.202;2023-06-19T05:31:37;98275.53;;;18.38;71.83
30618;BME280;17384;51.214;9.202;2023-06-19T05:34:03;98276.03;;;18.50;71.26
30618;BME280;17384;51.214;9.202;2023-06-19T05:36:28;98290.59;;;18.61;69.62
30618;BME280;17384;51.214;9.202;2023-06-19T05:38:54;98294.13;;;18.72;69.78
30618;BME280;17384;51.214;9.202;2023-06-19T05:41:19;98293.84;;;18.78;70.02
30618;BME280;17384;51.214;9.202;2023-06-19T05:43:45;98298.69;;;18.97;70.41
30618;BME280;17384;51.214;9.202;2023-06-19T05:46:10;98296.66;;;19.17;70.10
30618;BME280;17384;51.214;9.202;2023-06-19T05:48:37;98300.44;;;19.32;69.10
30618;BME280;17384;51.214;9.202;2023-06-19T05:51:02;98297.84;;;19.50;68.81
30618;BME280;17384;51.214;9.202;2023-06-19T05:53:27;98296.00;;;19.80;67.16
30618;BME280;17384;51.214;9.202;2023-06-19T05:55:53;98290.47;;;20.14;65.88
30618;BME280;17384;51.214;9.202;2023-06-19T05:58:18;98302.59;;;20.42;64.58
30618;BME280;17384;51.214;9.202;2023-06-19T06:00:46;98303.19;;;20.63;63.65
30618;BME280;17384;51.214;9.202;2023-06-19T06:03:12;98298.66;;;20.95;61.01
30618;BME280;17384;51.214;9.202;2023-06-19T06:05:38;98308.00;;;21.23;54.82
30618;BME280;17384;51.214;9.202;2023-06-19T06:08:04;98310.84;;;21.56;53.79
30618;BME280;17384;51.214;9.202;2023-06-19T06:10:29;98321.81;;;21.93;54.87
30618;BME280;17384;51.214;9.202;2023-06-19T06:12:55;98310.50;;;22.27;54.47
30618;BME280;17384;51.214;9.202;2023-06-19T06:15:21;98305.22;;;22.58;53.75
30618;BME280;17384;51.214;9.202;2023-06-19T06:17:46;98308.13;;;22.67;52.04
30618;BME280;17384;51.214;9.202;2023-06-19T06:20:12;98313.44;;;22.77;51.09
30618;BME280;17384;51.214;9.202;2023-06-19T06:22:41;98309.06;;;22.90;51.15
30618;BME280;17384;51.214;9.202;2023-06-19T06:25:07;98323.63;;;22.95;50.66
30618;BME280;17384;51.214;9.202;2023-06-19T06:27:34;98319.56;;;23.29;50.40
30618;BME280;17384;51.214;9.202;2023-06-19T06:29:59;98318.31;;;23.49;51.12
30618;BME280;17384;51.214;9.202;2023-06-19T06:32:25;98309.28;;;23.57;49.76
30618;BME280;17384;51.214;9.202;2023-06-19T06:34:52;98318.38;;;23.93;48.31
30618;BME280;17384;51.214;9.202;2023-06-19T06:37:17;98314.06;;;24.01;48.34
30618;BME280;17384;51.214;9.202;2023-06-19T06:39:48;98329.34;;;23.76;49.05
30618;BME280;17384;51.214;9.202;2023-06-19T06:42:14;98319.47;;;24.28;48.13
30618;BME280;17384;51.214;9.202;2023-06-19T06:44:39;98301.53;;;24.66;47.62
30618;BME280;17384;51.214;9.202;2023-06-19T06:47:05;98308.41;;;24.99;47.67
30618;BME280;17384;51.214;9.202;2023-06-19T06:49:30;98315.69;;;25.35;47.24
30618;BME280;17384;51.214;9.202;2023-06-19T06:51:56;98316.38;;;25.75;47.05
30618;BME280;17384;51.214;9.202;2023-06-19T06:54:21;98321.78;;;26.06;44.43
30618;BME280;17384;51.214;9.202;2023-06-19T06:56:47;98330.94;;;26.32;43.26
30618;BME280;17384;51.214;9.202;2023-06-19T06:59:13;98316.38;;;26.18;44.74
30618;BME280;17384;51.214;9.202;2023-06-19T07:01:41;98317.72;;;25.69;45.45
30618;BME280;17384;51.214;9.202;2023-06-19T07:04:07;98317.53;;;26.00;45.55
30618;BME280;17384;51.214;9.202;2023-06-19T07:06:32;98325.88;;;26.17;44.88
30618;BME280;17384;51.214;9.202;2023-06-19T07:08:57;98323.88;;;26.43;44.17
30618;BME280;17384;51.214;9.202;2023-06-19T07:11:23;98331.34;;;26.69;43.87
30618;BME280;17384;51.214;9.202;2023-06-19T07:13:48;98330.50;;;26.77;45.10
30618;BME280;17384;51.214;9.202;2023-06-19T07:16:14;98331.72;;;27.05;42.76
30618;BME280;17384;51.214;9.202;2023-06-19T07:18:39;98328.94;;;27.35;42.59
30618;BME280;17384;51.214;9.202;2023-06-19T07:21:11;98330.53;;;27.65;42.75
30618;BME280;17384;51.214;9.202;2023-06-19T07:23:39;98324.72;;;27.58;42.19
30618;BME280;17384;51.214;9.202;2023-06-19T07:26:05;98337.97;;;27.61;41.50
30618;BME280;17384;51.214;9.202;2023-06-19T07:28:31;98334.47;;;28.06;40.31
30618;BME280;17384;51.214;9.202;2023-06-19T07:30:57;98337.97;;;27.32;42.58
30618;BME280;17384;51.214;9.202;2023-06-19T07:33:22;98344.28;;;27.41;42.71
30618;BME280;17384;51.214;9.202;2023-06-19T07:35:48;98352.34;;;27.63;42.20
30618;BME280;17384;51.214;9.202;2023-06-19T07:38:13;98354.59;;;27.70;42.87
30618;BME280;17384;51.214;9.202;2023-06-19T07:40:39;98350.81;;;27.45;43.25
30618;BME280;17384;51.214;9.202;2023-06-19T07:43:04;98341.00;;;27.68;42.40
30618;BME280;17384;51.214;9.202;2023-06-19T07:45:30;98348.16;;;27.98;41.51
30618;BME280;17384;51.214;9.202;2023-06-19T07:47:58;98349.03;;;28.32;41.60
30618;BME280;17384;51.214;9.202;2023-06-19T07:50:23;98354.34;;;28.04;41.26
30618;BME280;17384;51.214;9.202;2023-06-19T07:52:49;98360.31;;;27.94;41.68
30618;BME280;17384;51.214;9.202;2023-06-19T07:55:14;98360.88;;;28.29;41.65
30618;BME280;17384;51.214;9.202;2023-06-19T07:57:40;98368.44;;;28.08;42.24
30618;BME280;17384;51.214;9.202;2023-06-19T08:00:06;98347.63;;;27.84;43.29
30618;BME280;17384;51.214;9.202;2023-06-19T08:02:40;98354.00;;;28.26;41.75
30618;BME280;17384;51.214;9.202;2023-06-19T08:05:07;98360.56;;;27.89;43.19
30618;BME280;17384;51.214;9.202;2023-06-19T08:07:33;98356.91;;;27.38;43.92
30618;BME280;17384;51.214;9.202;2023-06-19T08:09:59;98358.69;;;27.72;42.86
30618;BME280;17384;51.214;9.202;2023-06-19T08:12:24;98357.47;;;27.61;43.94
30618;BME280;17384;51.214;9.202;2023-06-19T08:14:50;98365.28;;;27.68;43.43
30618;BME280;17384;51.214;9.202;2023-06-19T08:17:15;98367.88;;;28.35;42.08
30618;BME280;17384;51.214;9.202;2023-06-19T08:19:40;98365.84;;;28.44;41.03
30618;BME280;17384;51.214;9.202;2023-06-19T08:22:08;98361.34;;;28.31;41.56
30618;BME280;17384;51.214;9.202;2023-06-19T08:24:34;98378.44;;;27.88;44.21
30618;BME280;17384;51.214;9.202;2023-06-19T08:27:01;98369.41;;;27.32;44.86
30618;BME280;17384;51.214;9.202;2023-06-19T08:29:27;98374.09;;;27.11;45.10
30618;BME280;17384;51.214;9.202;2023-06-19T08:31:52;98372.19;;;26.85;45.82
30618;BME280;17384;51.214;9.202;2023-06-19T08:34:18;98371.13;;;26.69;45.53
30618;BME280;17384;51.214;9.202;2023-06-19T08:36:43;98370.22;;;26.86;45.64
30618;BME280;17384;51.214;9.202;2023-06-19T08:39:09;98367.59;;;27.07;46.56
30618;BME280;17384;51.214;9.202;2023-06-19T08:41:36;98365.28;;;27.68;44.00
30618;BME280;17384;51.214;9.202;2023-06-19T08:44:03;98371.44;;;28.23;43.25
30618;BME280;17384;51.214;9.202;2023-06-19T08:46:28;98368.28;;;28.91;42.59
30618;BME280;17384;51.214;9.202;2023-06-19T08:48:55;98373.91;;;29.15;40.72
30618;BME280;17384;51.214;9.202;2023-06-19T08:51:20;98372.50;;;29.09;41.64
30618;BME280;17384;51.214;9.202;2023-06-19T08:53:55;98371.63;;;29.54;40.00
30618;BME280;17384;51.214;9.202;2023-06-19T08:56:20;98371.44;;;29.02;40.77
30618;BME280;17384;51.214;9.202;2023-06-19T08:58:46;98375.75;;;27.91;43.09
30618;BME280;17384;51.214;9.202;2023-06-19T09:01:16;98379.16;;;27.76;43.07
30618;BME280;17384;51.214;9.202;2023-06-19T09:03:41;98367.16;;;27.55;43.88
30618;BME280;17384;51.214;9.202;2023-06-19T09:06:07;98369.75;;;27.30;44.91
30618;BME280;17384;51.214;9.202;2023-06-19T09:08:33;98372.09;;;28.00;43.95
30618;BME280;17384;51.214;9.202;2023-06-19T09:11:00;98384.84;;;28.63;41.79
30618;BME280;17384;51.214;9.202;2023-06-19T09:13:27;98380.91;;;29.21;41.72
30618;BME280;17384;51.214;9.202;2023-06-19T09:16:06;98386.19;;;29.47;39.92
30618;BME280;17384;51.214;9.202;2023-06-19T09:18:44;98389.75;;;29.60;38.83
30618;BME280;17384;51.214;9.202;2023-06-19T09:21:17;98381.88;;;29.50;39.45
30618;BME280;17384;51.214;9.202;2023-06-19T09:23:47;98382.84;;;29.94;38.53
30618;BME280;17384;51.214;9.202;2023-06-19T09:26:16;98379.03;;;30.26;38.89
30618;BME280;17384;51.214;9.202;2023-06-19T09:28:43;98380.97;;;30.66;36.98
30618;BME280;17384;51.214;9.202;2023-06-19T09:31:08;98383.44;;;30.00;37.68
30618;BME280;17384;51.214;9.202;2023-06-19T09:33:35;98386.19;;;30.12;38.18
30618;BME280;17384;51.214;9.202;2023-06-19T09:36:03;98396.16;;;29.24;38.86
30618;BME280;17384;51.214;9.202;2023-06-19T09:38:30;98393.16;;;29.41;39.13
30618;BME280;17384;51.214;9.202;2023-06-19T09:40:59;98389.06;;;29.75;37.22
30618;BME280;17384;51.214;9.202;2023-06-19T09:43:33;98387.34;;;30.51;36.79
30618;BME280;17384;51.214;9.202;2023-06-19T09:46:00;98396.16;;;30.65;36.42
30618;BME280;17384;51.214;9.202;2023-06-19T09:48:30;98386.16;;;30.52;36.65
30618;BME280;17384;51.214;9.202;2023-06-19T09:51:37;98383.88;;;31.13;35.83
30618;BME280;17384;51.214;9.202;2023-06-19T09:54:04;98377.97;;;31.03;34.86
30618;BME280;17384;51.214;9.202;2023-06-19T09:56:32;98372.75;;;31.17;35.57
30618;BME280;17384;51.214;9.202;2023-06-19T09:58:59;98389.88;;;31.62;33.97
30618;BME280;17384;51.214;9.202;2023-06-19T10:01:29;98392.53;;;31.55;35.19
30618;BME280;17384;51.214;9.202;2023-06-19T10:04:03;98385.47;;;31.61;35.37
30618;BME280;17384;51.214;9.202;2023-06-19T10:06:29;98387.94;;;32.17;34.88
30618;BME280;17384;51.214;9.202;2023-06-19T10:08:55;98391.59;;;32.37;33.50
30618;BME280;17384;51.214;9.202;2023-06-19T10:11:20;98388.53;;;32.07;33.25
30618;BME280;17384;51.214;9.202;2023-06-19T10:13:46;98383.63;;;31.85;33.25
30618;BME280;17384;51.214;9.202;2023-06-19T10:16:22;98391.94;;;31.81;33.98
30618;BME280;17384;51.214;9.202;2023-06-19T10:18:47;98401.28;;;31.07;35.19
30618;BME280;17384;51.214;9.202;2023-06-19T10:21:20;98399.97;;;31.32;34.62
30618;BME280;17384;51.214;9.202;2023-06-19T10:23:55;98397.38;;;30.95;34.02
30618;BME280;17384;51.214;9.202;2023-06-19T10:26:32;98388.59;;;29.73;36.32
30618;BME280;17384;51.214;9.202;2023-06-19T10:28:58;98395.00;;;29.37;37.04
30618;BME280;17384;51.214;9.202;2023-06-19T10:31:24;98393.81;;;29.38;38.38
30618;BME280;17384;51.214;9.202;2023-06-19T10:33:50;98386.50;;;29.58;37.14
30618;BME280;17384;51.214;9.202;2023-06-19T10:36:19;98399.19;;;29.19;37.78
30618;BME280;17384;51.214;9.202;2023-06-19T10:38:47;98389.06;;;29.39;36.63
30618;BME280;17384;51.214;9.202;2023-06-19T10:41:20;98391.19;;;28.51;39.39
30618;BME280;17384;51.214;9.202;2023-06-19T10:43:58;98397.34;;;28.24;39.41
30618;BME280;17384;51.214;9.202;2023-06-19T10:46:28;98393.81;;;28.69;39.40
30618;BME280;17384;51.214;9.202;2023-06-19T10:48:54;98392.66;;;29.76;38.51
30618;BME280;17384;51.214;9.202;2023-06-19T10:51:24;98384.88;;;29.81;36.64
30618;BME280;17384;51.214;9.202;2023-06-19T10:53:50;98388.66;;;28.91;38.11
30618;BME280;17384;51.214;9.202;2023-06-19T10:56:19;98401.78;;;28.25;39.16
30618;BME280;17384;51.214;9.202;2023-06-19T10:58:45;98400.16;;;28.24;39.56
30618;BME280;17384;51.214;9.202;2023-06-19T11:01:10;98404.19;;;28.47;39.12
30618;BME280;17384;51.214;9.202;2023-06-19T11:03:36;98409.53;;;28.40;38.83
30618;BME280;17384;51.214;9.202;2023-06-19T11:06:03;98412.47;;;28.23;39.33
30618;BME280;17384;51.214;9.202;2023-06-19T11:08:28;98411.47;;;27.77;40.10
30618;BME280;17384;51.214;9.202;2023-06-19T11:10:55;98392.59;;;27.45;40.76
30618;BME280;17384;51.214;9.202;2023-06-19T11:13:20;98410.34;;;27.40;40.87
30618;BME280;17384;51.214;9.202;2023-06-19T11:15:48;98414.25;;;27.77;40.19
30618;BME280;17384;51.214;9.202;2023-06-19T11:18:17;98410.84;;;27.92;40.19
30618;BME280;17384;51.214;9.202;2023-06-19T11:20:50;98418.53;;;27.95;40.15
30618;BME280;17384;51.214;9.202;2023-06-19T11:23:26;98408.22;;;28.17;38.73
30618;BME280;17384;51.214;9.202;2023-06-19T11:25:52;98401.94;;;28.74;38.78
30618;BME280;17384;51.214;9.202;2023-06-19T11:28:18;98403.84;;;28.49;38.65
30618;BME280;17384;51.214;9.202;2023-06-19T11:30:48;98398.50;;;28.02;38.91
30618;BME280;17384;51.214;9.202;2023-06-19T11:33:23;98408.25;;;27.67;39.71
30618;BME280;17384;51.214;9.202;2023-06-19T11:35:53;98399.22;;;27.70;39.80
30618;BME280;17384;51.214;9.202;2023-06-19T11:38:25;98407.53;;;27.78;41.99
30618;BME280;17384;51.214;9.202;2023-06-19T11:40:51;98409.22;;;27.91;41.45
30618;BME280;17384;51.214;9.202;2023-06-19T11:43:28;98408.00;;;28.76;38.30
30618;BME280;17384;51.214;9.202;2023-06-19T11:46:02;98415.44;;;28.92;38.06
30618;BME280;17384;51.214;9.202;2023-06-19T11:48:28;98417.50;;;28.29;39.19
30618;BME280;17384;51.214;9.202;2023-06-19T11:50:54;98419.94;;;28.31;39.79
30618;BME280;17384;51.214;9.202;2023-06-19T11:53:21;98410.94;;;29.24;37.36
30618;BME280;17384;51.214;9.202;2023-06-19T11:55:47;98405.81;;;29.87;35.33
30618;BME280;17384;51.214;9.202;2023-06-19T11:58:12;98401.41;;;29.99;34.63
30618;BME280;17384;51.214;9.202;2023-06-19T12:00:40;98411.50;;;30.43;35.41
30618;BME280;17384;51.214;9.202;2023-06-19T12:03:06;98412.13;;;30.64;33.66
30618;BME280;17384;51.214;9.202;2023-06-19T12:05:32;98417.06;;;30.27;34.00
30618;BME280;17384;51.214;9.202;2023-06-19T12:07:57;98418.97;;;30.39;33.81
30618;BME280;17384;51.214;9.202;2023-06-19T12:10:23;98410.22;;;29.27;36.61
30618;BME280;17384;51.214;9.202;2023-06-19T12:12:48;98417.78;;;30.12;35.35
30618;BME280;17384;51.214;9.202;2023-06-19T12:15:14;98418.03;;;30.47;33.92
30618;BME280;17384;51.214;9.202;2023-06-19T12:17:40;98412.88;;;30.21;34.53
30618;BME280;17384;51.214;9.202;2023-06-19T12:20:06;98408.88;;;30.35;34.65
30618;BME280;17384;51.214;9.202;2023-06-19T12:22:33;98407.06;;;30.14;35.14
30618;BME280;17384;51.214;9.202;2023-06-19T12:25:00;98409.41;;;29.88;37.34
30618;BME280;17384;51.214;9.202;2023-06-19T12:27:25;98410.69;;;29.90;35.10
30618;BME280;17384;51.214;9.202;2023-06-19T12:29:51;98408.50;;;29.84;34.52
30618;BME280;17384;51.214;9.202;2023-06-19T12:32:16;98399.78;;;29.24;36.57
30618;BME280;17384;51.214;9.202;2023-06-19T12:34:42;98399.66;;;29.70;36.17
30618;BME280;17384;51.214;9.202;2023-06-19T12:37:14;98397.75;;;29.86;35.23
30618;BME280;17384;51.214;9.202;2023-06-19T12:39:40;98403.31;;;30.62;34.57
30618;BME280;17384;51.214;9.202;2023-06-19T12:42:06;98403.41;;;30.54;34.11
30618;BME280;17384;51.214;9.202;2023-06-19T12:44:31;98404.03;;;30.59;33.59
30618;BME280;17384;51.214;9.202;2023-06-19T12:46:57;98402.91;;;31.08;32.88
30618;BME280;17384;51.214;9.202;2023-06-19T12:49:25;98406.66;;;31.27;33.45
30618;BME280;17384;51.214;9.202;2023-06-19T12:51:51;98403.13;;;30.03;34.19
30618;BME280;17384;51.214;9.202;2023-06-19T12:54:17;98390.19;;;29.01;35.65
30618;BME280;17384;51.214;9.202;2023-06-19T12:56:44;98392.28;;;29.04;36.60
30618;BME280;17384;51.214;9.202;2023-06-19T12:59:09;98398.59;;;29.38;37.46
30618;BME280;17384;51.214;9.202;2023-06-19T13:01:35;98398.13;;;29.23;36.17